Huvudsida
METAR-TAF:

METAR-TAF

Flygplatser :

Užice, Serbien

latitud: 43-53-56N, longitud: 19-41-52E, höjd: 904 m

Aktuellt väderrapport

Denna rapport gjordes för 26 minuter sedan, klockan 14:00 UTC
Vind 5 kt från väst/nordväst, varierande mellan väst och nord
Temperatur 4°C
Fuktighet 48%
Tryck 1029 hPa
Sikt 10 km eller mer
Få moln på en höjd av 2500 ft

METAR: LYUZ 221400Z 30005KT 260V360 9999 FEW025 04/M06 Q1029

Tid: 15:26 (14:26 UTC)

Väderprognos

Denna rapport gjordes för 3 timmar och 26 minuter sedan, klockan 11:00 UTC
Prognos gäller från 22 kl. 12 UTC till 23 kl. 12 UTC
Vind 6 kt från nord/nordost
Sikt 10 km eller mer
Spridda moln på en höjd av 2000 ft
Spridda moln på en höjd av 4000 ft

TAF: LYUZ 221100Z 2212/2312 32005KT 9999 SCT020 TX04/2213Z TNM03/2206Z LYVR 221100Z 2212/2312 03006KT 9999 SCT040 TX09/2213Z TN02/2306Z

Aktuella väderrapporter och prognoser från 4000 flygplatser (METAR- och TAF-rapporter).

De tillgängliga stationerna syns som gula och röda prickar på kartan.

För musen över prickarna för att se namnen på stationerna.

Klicka sedan för att få väderrapporter och prognoser.

För att ändra kartan: Klicka på de gröna knapparna med ett svart kors på för att zooma in; den gröna knappen med ett streck på för att zooma ut; eller på de gröna pilarna för angränsande kartor.


METAR-TAF: